Time;durP1;ratioP1;P1;durP2;ratioP2;P2;SDS_P1;SDS_P2;PMS_P1;PMS_P2;Temp;Humidity;BMP_temperature;BMP_pressure;BME280_temperature;BME280_humidity;BME280_pressure;Samples;Min_cycle;Max_cycle;Signal;HPM_P1;HPM_P2
2022/06/06 00:02:26;;;;;;;125.50;38.35;;;;;;;13.47;100.00;101272.75;4992614;28;20033;-85
2022/06/06 00:04:51;;;;;;;129.20;37.58;;;;;;;13.56;100.00;101277.63;4992913;28;20470;-84
2022/06/06 00:07:17;;;;;;;122.17;36.43;;;;;;;13.52;100.00;101277.34;5004863;28;20123;-85
2022/06/06 00:09:42;;;;;;;125.00;36.83;;;;;;;13.56;100.00;101281.13;5010549;28;20165;-84
2022/06/06 00:12:08;;;;;;;115.63;36.00;;;;;;;13.57;100.00;101287.31;4992721;28;20411;-85
2022/06/06 00:14:34;;;;;;;115.07;34.42;;;;;;;13.50;100.00;101281.38;4992760;28;20120;-86
2022/06/06 00:16:59;;;;;;;110.22;33.85;;;;;;;13.59;100.00;101279.78;4992859;28;20517;-84
2022/06/06 00:19:25;;;;;;;104.20;32.27;;;;;;;13.57;100.00;101280.06;4991379;28;20030;-85
2022/06/06 00:21:51;;;;;;;110.72;33.72;;;;;;;13.53;100.00;101275.44;4992055;28;20035;-85
2022/06/06 00:24:16;;;;;;;115.23;33.90;;;;;;;13.53;100.00;101264.69;4992940;28;20022;-85
2022/06/06 00:26:42;;;;;;;112.82;33.88;;;;;;;13.49;100.00;101267.09;4992110;28;20577;-85
2022/06/06 00:29:09;;;;;;;107.93;32.53;;;;;;;13.47;100.00;101259.31;4993085;28;20027;-85
2022/06/06 00:37:06;;;;;;;112.22;32.22;;;;;;;13.54;100.00;101266.28;4991275;28;20053;-85
2022/06/06 00:39:31;;;;;;;100.87;31.00;;;;;;;13.44;100.00;101246.38;4993762;28;20110;-85
2022/06/06 00:41:57;;;;;;;114.80;31.83;;;;;;;13.45;100.00;101247.16;4993065;28;20354;-85
2022/06/06 00:44:28;;;;;;;111.97;31.50;;;;;;;13.47;100.00;101251.22;4991859;28;20653;-85
2022/06/06 00:47:04;;;;;;;104.07;31.67;;;;;;;13.35;100.00;101230.97;4992891;28;20033;-85
2022/06/06 00:49:37;;;;;;;105.55;31.30;;;;;;;13.49;100.00;101259.03;4992959;28;20030;-85
2022/06/06 00:52:11;;;;;;;104.80;31.38;;;;;;;13.43;100.00;101255.53;4991680;28;20168;-85
2022/06/06 00:54:37;;;;;;;103.40;31.13;;;;;;;13.37;100.00;101245.78;4991849;28;20035;-85
2022/06/06 00:57:09;;;;;;;108.70;30.60;;;;;;;13.37;100.00;101245.78;4993141;28;20369;-85
2022/06/06 00:59:37;;;;;;;104.25;31.63;;;;;;;13.45;100.00;101252.56;5002536;28;20030;-85
2022/06/06 01:02:06;;;;;;;107.60;31.98;;;;;;;13.37;100.00;101243.09;4993515;28;20022;-86
2022/06/06 01:04:33;;;;;;;104.93;32.13;;;;;;;13.39;100.00;101249.03;4992908;28;20436;-85
2022/06/06 01:06:58;;;;;;;106.13;31.20;;;;;;;13.46;100.00;101259.56;4991965;28;20041;-84
2022/06/06 01:09:26;;;;;;;95.30;29.73;;;;;;;13.47;100.00;101261.19;4992109;28;20030;-86
2022/06/06 01:12:04;;;;;;;105.97;31.48;;;;;;;13.48;100.00;101266.31;4990353;28;20382;-85
2022/06/06 01:14:37;;;;;;;97.95;30.92;;;;;;;13.47;100.00;101259.31;4992176;28;20109;-85
2022/06/06 01:17:25;;;;;;;97.85;32.20;;;;;;;13.46;100.00;101260.38;4990372;28;20038;-85
2022/06/06 01:20:12;;;;;;;103.45;32.40;;;;;;;13.49;100.00;101256.34;4983270;28;20026;-84
2022/06/06 01:23:23;;;;;;;112.43;34.30;;;;;;;13.38;100.00;101242.03;4976795;28;20078;-86
2022/06/06 01:26:13;;;;;;;120.18;36.22;;;;;;;13.47;100.00;101248.53;4963864;28;20042;-86
2022/06/06 01:28:46;;;;;;;125.70;36.92;;;;;;;13.42;100.00;101236.97;4990804;28;20375;-85
2022/06/06 01:31:27;;;;;;;121.20;36.63;;;;;;;13.48;100.00;101257.41;4991295;28;20033;-85
2022/06/06 01:33:57;;;;;;;122.80;37.03;;;;;;;13.49;100.00;101267.09;4991424;28;20045;-85
2022/06/06 01:36:27;;;;;;;135.13;40.10;;;;;;;13.47;100.00;101258.47;4991129;28;20724;-85
2022/06/06 01:38:53;;;;;;;131.85;40.90;;;;;;;13.46;100.00;101254.16;4991442;28;20035;-86
2022/06/06 01:41:29;;;;;;;124.82;40.72;;;;;;;13.49;100.00;101253.66;4990639;28;20038;-85
2022/06/06 01:44:04;;;;;;;122.63;39.42;;;;;;;13.46;100.00;101248.78;4990421;28;20511;-84
2022/06/06 01:46:35;;;;;;;134.65;42.20;;;;;;;13.43;100.00;101241.25;4991443;28;20109;-85
2022/06/06 01:49:00;;;;;;;122.90;40.47;;;;;;;13.51;100.00;101254.19;4990431;28;20092;-85
2022/06/06 01:51:29;;;;;;;119.10;39.97;;;;;;;13.53;100.00;101253.91;4990141;28;20038;-85
2022/06/06 01:53:55;;;;;;;122.10;39.77;;;;;;;13.48;100.00;101255.53;4991159;28;20026;-85
2022/06/06 01:56:26;;;;;;;138.65;48.05;;;;;;;13.51;100.00;101254.19;4990982;28;20077;-85
2022/06/06 01:58:52;;;;;;;117.22;38.10;;;;;;;13.45;100.00;101248.00;4977310;28;20039;-85
2022/06/06 02:01:18;;;;;;;112.93;36.75;;;;;;;13.54;100.00;101250.16;4978599;28;20026;-86
2022/06/06 02:03:43;;;;;;;112.05;35.85;;;;;;;13.51;100.00;101248.00;4990660;28;20038;-85
2022/06/06 02:06:09;;;;;;;118.20;35.80;;;;;;;13.54;100.00;101247.44;4991145;28;20113;-85
2022/06/06 02:08:34;;;;;;;114.43;36.23;;;;;;;13.50;100.00;101238.31;4990887;28;20030;-85
2022/06/06 02:11:00;;;;;;;112.95;34.53;;;;;;;13.54;100.00;101240.19;4990485;28;20524;-85
2022/06/06 02:13:26;;;;;;;112.77;34.87;;;;;;;13.54;100.00;101234.00;4990288;28;20046;-85
2022/06/06 02:15:51;;;;;;;104.88;32.55;;;;;;;13.37;100.00;101196.53;4990847;28;20026;-84
2022/06/06 02:18:17;;;;;;;99.77;31.13;;;;;;;13.52;100.00;101228.88;4990199;28;20045;-85
2022/06/06 02:20:43;;;;;;;105.65;32.40;;;;;;;13.54;100.00;101237.50;4990654;28;20529;-85
2022/06/06 02:23:08;;;;;;;103.00;31.03;;;;;;;13.48;100.00;101230.50;4989678;28;20597;-84
2022/06/06 02:25:35;;;;;;;97.85;31.83;;;;;;;13.50;100.00;101230.25;4990213;28;20041;-84
2022/06/06 02:28:02;;;;;;;93.57;29.23;;;;;;;13.52;100.00;101233.44;4990931;28;20033;-85
2022/06/06 02:30:31;;;;;;;98.90;31.03;;;;;;;13.53;100.00;101230.50;4990220;28;20298;-88
2022/06/06 02:32:59;;;;;;;96.97;30.60;;;;;;;13.53;100.00;101232.38;4990746;28;20034;-88
2022/06/06 02:35:27;;;;;;;93.82;29.55;;;;;;;13.52;100.00;101238.81;4990956;28;20138;-88
2022/06/06 02:37:56;;;;;;;102.80;31.13;;;;;;;13.52;100.00;101236.97;4987137;28;20039;-85
2022/06/06 02:40:22;;;;;;;103.50;30.52;;;;;;;13.46;100.00;101224.56;4996602;28;20447;-83
2022/06/06 02:42:48;;;;;;;95.28;30.33;;;;;;;13.48;100.00;101223.25;5007115;28;20425;-83
2022/06/06 02:45:15;;;;;;;104.78;31.40;;;;;;;13.48;100.00;101236.69;4988658;28;20034;-84
2022/06/06 02:47:46;;;;;;;95.93;31.02;;;;;;;13.47;100.00;101227.00;4989957;28;20376;-86
2022/06/06 02:50:12;;;;;;;92.87;31.10;;;;;;;13.44;100.00;101224.00;4990172;28;20061;-84
2022/06/06 02:52:39;;;;;;;99.43;31.13;;;;;;;13.41;100.00;101219.97;4989248;28;20301;-83
2022/06/06 02:55:08;;;;;;;91.63;30.15;;;;;;;13.43;100.00;101231.28;4989333;28;20027;-84
2022/06/06 02:57:38;;;;;;;95.93;29.73;;;;;;;13.41;100.00;101227.25;4988196;28;20049;-84
2022/06/06 03:00:06;;;;;;;96.75;31.08;;;;;;;13.42;100.00;101234.28;4990824;28;20492;-83
2022/06/06 03:02:33;;;;;;;98.50;30.83;;;;;;;13.43;100.00;101233.16;4990036;28;20589;-83
2022/06/06 03:04:59;;;;;;;100.45;34.80;;;;;;;13.35;100.00;101223.72;4990833;28;20061;-84
2022/06/06 03:07:47;;;;;;;96.83;31.73;;;;;;;13.36;100.00;101230.72;4990061;28;20105;-84
2022/06/06 03:10:24;;;;;;;95.18;31.10;;;;;;;13.37;100.00;101224.25;4993243;28;20088;-84
2022/06/06 03:13:08;;;;;;;97.78;31.48;;;;;;;13.33;100.00;101228.53;4993689;28;20033;-84
2022/06/06 03:22:15;;;;;;;100.50;33.28;;;;;;;13.23;100.00;101221.28;4993855;28;20093;-84
2022/06/06 03:25:03;;;;;;;92.10;30.73;;;;;;;13.20;100.00;101239.81;4978567;28;20568;-84
2022/06/06 03:27:52;;;;;;;93.57;32.00;;;;;;;13.18;100.00;101232.03;4993877;28;20289;-84
2022/06/06 03:30:25;;;;;;;95.03;31.90;;;;;;;13.15;100.00;101227.19;4992905;28;20030;-83
2022/06/06 03:33:09;;;;;;;85.63;31.52;;;;;;;13.17;100.00;101243.88;4993301;28;20030;-83
2022/06/06 03:35:40;;;;;;;89.72;30.85;;;;;;;13.18;100.00;101238.19;4993410;28;20054;-83
2022/06/06 03:38:11;;;;;;;84.20;29.88;;;;;;;13.20;100.00;101239.81;4993765;28;20046;-83
2022/06/06 03:40:51;;;;;;;88.47;30.40;;;;;;;13.17;100.00;101239.28;4992446;28;20030;-83
2022/06/06 03:43:33;;;;;;;80.68;28.05;;;;;;;13.06;100.00;101244.88;4992465;28;20397;-83
2022/06/06 03:46:13;;;;;;;72.93;28.80;;;;;;;13.02;100.00;101244.63;4993519;28;20054;-83
2022/06/06 03:49:12;;;;;;;74.85;27.50;;;;;;;12.97;100.00;101247.28;4993437;28;20062;-83
2022/06/06 03:52:15;;;;;;;68.93;27.10;;;;;;;12.79;100.00;101238.59;4992986;28;20046;-84
2022/06/06 03:54:55;;;;;;;68.37;26.40;;;;;;;12.74;100.00;101252.03;4991105;28;20285;-86
2022/06/06 03:57:25;;;;;;;67.85;26.33;;;;;;;12.69;100.00;101241.25;4976867;28;20047;-86
2022/06/06 03:59:56;;;;;;;70.80;27.38;;;;;;;12.70;100.00;101253.63;4993325;28;20035;-86
2022/06/06 04:02:32;;;;;;;70.60;26.17;;;;;;;12.66;100.00;101250.66;4992475;28;20461;-88
2022/06/06 04:05:04;;;;;;;65.50;25.33;;;;;;;12.62;100.00;101246.06;4993185;28;20026;-89
2022/06/06 04:07:30;;;;;;;65.20;26.38;;;;;;;12.53;100.00;101251.94;4992565;28;20061;-90
2022/06/06 04:09:56;;;;;;;66.85;25.42;;;;;;;12.50;100.00;101252.47;4994509;28;20030;-90
2022/06/06 04:12:44;;;;;;;60.00;23.10;;;;;;;12.46;100.00;101259.41;4994394;28;20029;-90
2022/06/06 04:15:11;;;;;;;61.10;24.08;;;;;;;12.44;100.00;101266.94;4981914;28;20057;-90
2022/06/06 04:18:10;;;;;;;63.33;24.13;;;;;;;12.45;100.00;101267.75;4993683;28;20033;-89
2022/06/06 04:20:54;;;;;;;60.92;22.88;;;;;;;12.48;100.00;101267.22;4990991;28;20034;-88
2022/06/06 04:23:35;;;;;;;58.07;21.50;;;;;;;12.48;100.00;101273.41;4988124;28;20026;-88
2022/06/06 04:26:34;;;;;;;54.43;20.20;;;;;;;12.41;100.00;101268.25;4992435;28;20281;-89
2022/06/06 04:29:28;;;;;;;52.45;20.95;;;;;;;12.52;100.00;101274.50;4992727;28;20042;-89
2022/06/06 04:32:14;;;;;;;55.95;20.92;;;;;;;12.61;100.00;101274.84;4972461;28;20038;-89
2022/06/06 04:34:42;;;;;;;56.63;21.42;;;;;;;12.72;100.00;101262.25;4993468;28;20477;-89
2022/06/06 04:37:14;;;;;;;50.38;19.20;;;;;;;12.80;100.00;101290.53;4992092;28;20035;-90
2022/06/06 04:39:48;;;;;;;47.45;19.13;;;;;;;12.79;100.00;101289.69;4992197;28;20034;-89
2022/06/06 04:42:30;;;;;;;49.78;18.60;;;;;;;12.76;100.00;101295.63;4992060;28;20058;-89
2022/06/06 04:45:07;;;;;;;40.53;19.15;;;;;;;12.84;100.00;101292.41;4992914;28;20026;-90
2022/06/06 04:47:36;;;;;;;38.10;18.48;;;;;;;12.94;100.00;101285.47;4991520;28;20405;-89
2022/06/06 04:50:08;;;;;;;42.63;19.03;;;;;;;13.53;100.00;101284.34;4989422;28;20030;-89
2022/06/06 04:52:36;;;;;;;41.23;18.73;;;;;;;14.24;100.00;101287.34;4991358;28;20671;-89
2022/06/06 04:55:04;;;;;;;34.25;16.83;;;;;;;14.22;100.00;101290.31;4992298;28;20029;-89
2022/06/06 04:57:31;;;;;;;35.78;16.20;;;;;;;13.95;100.00;101284.41;4992164;28;20030;-89
2022/06/06 04:59:58;;;;;;;27.92;16.45;;;;;;;13.69;100.00;101290.56;4992596;28;20031;-89
2022/06/06 05:02:25;;;;;;;34.67;17.02;;;;;;;13.93;100.00;101290.03;4991283;28;20022;-90
2022/06/06 05:04:50;;;;;;;30.98;16.17;;;;;;;14.11;100.00;101290.56;4991487;28;20034;-90
2022/06/06 05:07:34;;;;;;;31.47;17.07;;;;;;;14.04;100.00;101291.69;4988053;28;20027;-88
2022/06/06 05:10:15;;;;;;;34.38;18.08;;;;;;;13.89;100.00;101281.69;4994786;28;20033;-88
2022/06/06 05:13:18;;;;;;;30.65;18.25;;;;;;;14.38;100.00;101293.81;4997307;28;20026;-89
2022/06/06 05:15:51;;;;;;;33.28;19.20;;;;;;;15.35;100.00;101292.94;4978388;28;20073;-89
2022/06/06 05:18:49;;;;;;;31.35;18.50;;;;;;;16.14;100.00;101300.25;4991703;28;20066;-88
2022/06/06 05:21:26;;;;;;;29.95;17.80;;;;;;;16.58;97.57;101307.41;4978178;28;20097;-88
2022/06/06 05:24:19;;;;;;;27.93;17.40;;;;;;;16.71;98.49;101308.63;4972200;28;20034;-88
2022/06/06 05:27:09;;;;;;;28.37;17.17;;;;;;;16.92;96.57;101313.81;4983099;28;20696;-88
2022/06/06 05:29:40;;;;;;;21.60;15.52;;;;;;;17.16;88.40;101311.09;4990541;28;20042;-89
2022/06/06 05:32:05;;;;;;;24.20;15.25;;;;;;;16.78;85.46;101311.78;4971756;28;20500;-89
2022/06/06 05:34:37;;;;;;;25.97;15.63;;;;;;;16.94;89.75;101306.19;4986757;28;20113;-88
2022/06/06 05:37:14;;;;;;;19.83;14.27;;;;;;;17.08;86.55;101312.53;4991720;28;20666;-88
2022/06/06 05:39:59;;;;;;;26.67;15.40;;;;;;;17.31;85.90;101312.81;4988479;28;20081;-88
2022/06/06 05:42:54;;;;;;;20.23;13.85;;;;;;;17.40;83.99;101318.38;4990957;28;20034;-88
2022/06/06 05:45:28;;;;;;;18.77;13.77;;;;;;;16.99;84.97;101316.97;4991632;28;20030;-88
2022/06/06 05:48:03;;;;;;;19.00;13.90;;;;;;;16.77;85.48;101309.34;4991484;28;20038;-89
2022/06/06 05:50:55;;;;;;;20.05;13.85;;;;;;;16.80;88.51;101319.63;4990103;28;20030;-88
2022/06/06 05:53:45;;;;;;;18.02;13.10;;;;;;;16.22;88.40;101317.75;4991211;28;20038;-89
2022/06/06 05:56:30;;;;;;;19.87;13.23;;;;;;;15.64;91.54;101321.94;4990568;28;20026;-89
2022/06/06 05:59:09;;;;;;;19.93;13.67;;;;;;;15.29;91.61;101314.59;4990002;28;20305;-91
2022/06/06 06:02:04;;;;;;;18.60;12.95;;;;;;;15.33;91.42;101320.22;4977624;28;20085;-89
2022/06/06 06:04:34;;;;;;;18.98;12.98;;;;;;;15.55;91.35;101310.94;4987493;28;20384;-90
2022/06/06 06:07:22;;;;;;;19.25;13.38;;;;;;;15.80;92.55;101319.94;4990453;28;20397;-89
2022/06/06 06:10:01;;;;;;;19.13;12.57;;;;;;;15.91;87.98;101321.53;4990319;28;20113;-84
2022/06/06 06:12:54;;;;;;;19.95;12.30;;;;;;;15.90;92.27;101318.00;4990400;28;20034;-85
2022/06/06 06:15:29;;;;;;;17.40;13.13;;;;;;;16.07;90.36;101322.19;4989029;28;20384;-84
2022/06/06 06:17:56;;;;;;;18.02;12.77;;;;;;;16.24;89.31;101327.19;4990387;28;20031;-86
2022/06/06 06:20:28;;;;;;;18.73;12.85;;;;;;;16.17;85.59;101330.22;4989171;28;20030;-89
2022/06/06 06:23:00;;;;;;;18.43;12.43;;;;;;;15.89;89.32;101310.97;4991302;28;20489;-87
2022/06/06 06:25:27;;;;;;;14.10;10.40;;;;;;;15.87;86.74;101326.69;4984995;28;20293;-86
2022/06/06 06:27:58;;;;;;;14.68;9.80;;;;;;;15.70;86.44;101329.72;4989954;28;20041;-86
2022/06/06 06:30:29;;;;;;;15.50;9.20;;;;;;;15.84;87.71;101331.78;4988858;28;20034;-86
2022/06/06 06:33:03;;;;;;;12.93;7.85;;;;;;;15.89;86.59;101343.41;4989691;28;20019;-86
2022/06/06 06:35:52;;;;;;;10.20;7.38;;;;;;;16.18;89.39;101348.06;4989149;28;20474;-86
2022/06/06 06:38:48;;;;;;;10.88;6.53;;;;;;;16.12;88.98;101349.19;4980082;28;20049;-86
2022/06/06 06:41:40;;;;;;;13.43;5.88;;;;;;;15.98;88.47;101351.72;4989265;28;20134;-86
2022/06/06 06:44:11;;;;;;;8.20;5.45;;;;;;;15.96;89.58;101353.09;4992087;28;20030;-86
2022/06/06 06:46:52;;;;;;;8.15;4.88;;;;;;;15.89;85.46;101343.41;4993038;28;20030;-86
2022/06/06 06:49:20;;;;;;;7.57;4.77;;;;;;;15.87;84.77;101352.88;4991511;28;20045;-85
2022/06/06 06:51:54;;;;;;;7.73;4.53;;;;;;;16.12;86.64;101349.19;4992093;28;20361;-85
2022/06/06 06:54:46;;;;;;;10.35;4.95;;;;;;;15.90;86.30;101350.41;4994133;28;20022;-86
2022/06/06 06:57:36;;;;;;;6.82;4.15;;;;;;;15.69;85.12;101362.44;4992832;28;20034;-86
2022/06/06 07:00:22;;;;;;;4.97;3.80;;;;;;;15.59;89.14;101361.41;4993779;28;20023;-87
2022/06/06 07:10:07;;;;;;;7.22;2.60;;;;;;;15.81;84.95;101351.28;4987157;28;20100;-86
2022/06/06 07:13:04;;;;;;;5.80;2.42;;;;;;;15.90;88.91;101355.81;4990461;28;20509;-86
2022/06/06 07:15:43;;;;;;;6.25;2.22;;;;;;;16.07;81.56;101353.84;4992604;28;20130;-85
2022/06/06 07:18:13;;;;;;;4.20;1.90;;;;;;;16.12;81.97;101362.72;4992876;28;20067;-85
2022/06/06 07:20:41;;;;;;;4.73;1.97;;;;;;;16.24;79.06;101350.75;4989776;28;20305;-85
2022/06/06 07:23:11;;;;;;;3.78;1.90;;;;;;;16.65;78.27;101367.41;4993197;28;20416;-85
2022/06/06 07:25:56;;;;;;;2.78;2.08;;;;;;;16.89;76.98;101363.88;4992461;28;20033;-85
2022/06/06 07:28:23;;;;;;;5.07;2.22;;;;;;;17.20;77.40;101368.16;4990351;28;20399;-86
2022/06/06 07:31:20;;;;;;;12.93;2.45;;;;;;;17.46;78.03;101375.97;4992196;28;20077;-87
2022/06/06 07:33:54;;;;;;;4.45;2.08;;;;;;;17.80;75.64;101358.72;4960740;28;20618;-86
2022/06/06 07:36:29;;;;;;;4.97;1.70;;;;;;;18.08;71.22;101372.41;4993657;28;20038;-86
2022/06/06 07:39:10;;;;;;;4.22;1.45;;;;;;;17.73;71.49;101371.81;4993372;28;20067;-86
2022/06/06 07:42:03;;;;;;;4.20;1.58;;;;;;;17.71;76.28;101378.34;4992168;28;20505;-86
2022/06/06 07:44:38;;;;;;;2.23;1.37;;;;;;;17.95;68.04;101380.16;4993137;28;20030;-86
2022/06/06 07:47:12;;;;;;;6.13;1.47;;;;;;;18.28;69.18;101369.38;4989347;28;20297;-87
2022/06/06 07:50:00;;;;;;;6.90;1.48;;;;;;;18.40;70.62;101359.97;4983509;28;20122;-86
2022/06/06 07:52:41;;;;;;;4.07;1.42;;;;;;;18.60;67.54;101381.31;4973268;28;20501;-86
2022/06/06 07:55:26;;;;;;;4.50;1.50;;;;;;;18.75;67.87;101377.50;4992107;28;20113;-86
2022/06/06 07:57:54;;;;;;;3.67;1.45;;;;;;;18.70;65.50;101374.91;4992396;28;20053;-87
2022/06/06 08:00:22;;;;;;;1.60;1.10;;;;;;;18.60;64.45;101375.06;4991965;28;20034;-87
2022/06/06 08:02:59;;;;;;;3.40;1.30;;;;;;;18.51;66.03;101369.53;4991915;28;20049;-89
2022/06/06 08:06:15;;;;;;;2.08;1.27;;;;;;;18.76;69.56;101376.41;4977753;28;20482;-85
2022/06/06 08:09:02;;;;;;;2.88;1.10;;;;;;;19.30;65.88;101375.13;4918645;29;20039;-89
2022/06/06 08:11:43;;;;;;;3.50;1.27;;;;;;;19.39;65.90;101367.06;4981466;28;20065;-88
2022/06/06 08:14:37;;;;;;;6.77;1.17;;;;;;;19.85;67.11;101362.50;4992336;28;20301;-86
2022/06/06 08:17:22;;;;;;;2.35;1.40;;;;;;;20.56;65.29;101373.53;4985762;28;20387;-86
2022/06/06 08:20:12;;;;;;;2.35;1.10;;;;;;;20.97;62.30;101373.59;4990177;28;20026;-84
2022/06/06 08:22:42;;;;;;;4.05;1.23;;;;;;;20.65;56.67;101368.13;4988959;28;20030;-84
2022/06/06 08:25:11;;;;;;;7.28;1.50;;;;;;;20.35;57.06;101377.94;4990633;28;20037;-84
2022/06/06 08:27:38;;;;;;;2.53;1.00;;;;;;;20.05;57.78;101366.69;4986409;28;20113;-84
2022/06/06 08:30:04;;;;;;;1.85;1.38;;;;;;;19.80;58.32;101366.16;4985035;28;20125;-83
2022/06/06 08:32:33;;;;;;;4.40;1.02;;;;;;;19.95;60.91;101373.97;4989900;28;20425;-84
2022/06/06 08:34:58;;;;;;;3.53;1.33;;;;;;;20.19;58.51;101353.03;4992366;28;20038;-83
2022/06/06 08:37:42;;;;;;;4.80;1.13;;;;;;;20.54;59.83;101366.81;4991194;28;20045;-82
2022/06/06 08:40:41;;;;;;;2.33;0.90;;;;;;;20.65;60.65;101362.69;4990138;28;20117;-83
2022/06/06 08:43:39;;;;;;;2.83;1.00;;;;;;;20.82;62.78;101358.47;4988781;28;20030;-84
2022/06/06 08:46:42;;;;;;;2.30;0.93;;;;;;;20.95;60.64;101360.28;4991457;28;20363;-84
2022/06/06 08:52:19;;;;;;;3.20;1.20;;;;;;;21.40;56.95;101351.09;4991089;28;20052;-84
2022/06/06 08:55:01;;;;;;;7.90;1.20;;;;;;;21.33;56.00;101354.28;4978200;28;20077;-84
2022/06/06 08:57:45;;;;;;;2.83;1.40;;;;;;;21.26;54.28;101355.88;4990435;28;20062;-83
2022/06/06 09:00:30;;;;;;;2.20;1.27;;;;;;;21.09;56.06;101351.19;4989138;28;20030;-84
2022/06/06 09:03:14;;;;;;;3.20;1.70;;;;;;;21.00;55.34;101351.97;4989148;28;20417;-84
2022/06/06 09:05:45;;;;;;;2.13;1.40;;;;;;;20.69;55.79;101341.91;4991170;28;20030;-84
2022/06/06 09:08:16;;;;;;;2.58;1.20;;;;;;;20.50;57.07;101347.59;4990885;28;20473;-83
2022/06/06 09:11:20;;;;;;;4.00;1.50;;;;;;;20.24;58.26;101348.25;4988966;28;20054;-83
2022/06/06 09:14:10;;;;;;;4.53;1.30;;;;;;;20.19;60.68;101351.09;4990400;28;20363;-83
2022/06/06 09:16:35;;;;;;;5.50;1.47;;;;;;;20.45;57.91;101350.44;4980889;28;20364;-82
2022/06/06 09:19:33;;;;;;;4.93;1.40;;;;;;;20.86;55.67;101340.38;4990751;28;20133;-83
2022/06/06 09:22:44;;;;;;;5.03;1.40;;;;;;;20.72;57.04;101344.00;4990220;28;20304;-81
2022/06/06 09:25:36;;;;;;;3.85;1.17;;;;;;;20.09;57.23;101335.03;4985090;28;20129;-83
2022/06/06 09:28:25;;;;;;;4.20;1.42;;;;;;;19.59;58.51;101334.00;4990471;28;20032;-83
2022/06/06 09:31:22;;;;;;;1.63;1.15;;;;;;;19.63;60.20;101334.97;4989688;28;20449;-83
2022/06/06 09:33:48;;;;;;;4.38;1.20;;;;;;;19.68;60.20;101337.59;4942173;28;20077;-83
2022/06/06 09:36:41;;;;;;;3.93;1.40;;;;;;;19.20;60.66;101332.69;4971269;28;20070;-85
2022/06/06 09:39:20;;;;;;;3.83;1.10;;;;;;;18.85;61.71;101330.34;4981817;28;20509;-83
2022/06/06 09:41:59;;;;;;;3.97;1.23;;;;;;;18.96;62.75;101343.78;4974867;28;20026;-83
2022/06/06 09:44:43;;;;;;;2.78;1.08;;;;;;;19.31;60.91;101330.56;4990527;28;20093;-83
2022/06/06 09:47:30;;;;;;;4.43;1.20;;;;;;;19.45;58.78;101323.16;4990061;28;20041;-84
2022/06/06 09:50:08;;;;;;;1.30;1.00;;;;;;;19.85;58.05;101327.94;4990272;28;20077;-85
2022/06/06 09:53:12;;;;;;;6.70;1.27;;;;;;;20.14;58.24;101321.31;4989489;28;20034;-85
2022/06/06 09:59:12;;;;;;;2.17;1.00;;;;;;;20.43;54.51;101318.09;4990218;28;20047;-86
2022/06/06 10:01:44;;;;;;;5.53;1.40;;;;;;;20.48;53.49;101319.06;4986914;28;20097;-84
2022/06/06 10:04:37;;;;;;;2.22;1.30;;;;;;;20.96;54.40;101318.31;4990096;28;20391;-85
2022/06/06 10:07:25;;;;;;;1.95;1.17;;;;;;;21.21;52.69;101315.16;4982620;28;20069;-84
2022/06/06 10:10:28;;;;;;;3.38;1.20;;;;;;;21.41;53.22;101332.81;4987063;28;20043;-86
2022/06/06 10:12:53;;;;;;;6.68;1.50;;;;;;;21.16;51.41;101314.19;4990188;28;20581;-85
2022/06/06 10:15:59;;;;;;;2.23;1.10;;;;;;;21.09;52.19;101308.41;4986608;28;20077;-86
2022/06/06 10:18:33;;;;;;;1.75;1.20;;;;;;;;;;4960354;28;20080;-85
2022/06/06 10:21:06;;;;;;;3.30;1.30;;;;;;;21.02;50.95;101305.34;4993482;28;20061;-85
2022/06/06 10:23:53;;;;;;;3.88;1.30;;;;;;;21.55;52.96;101308.91;4994449;28;20064;-86
2022/06/06 10:27:06;;;;;;;1.93;1.17;;;;;;;21.85;54.38;101297.38;4993435;28;20607;-86
2022/06/06 10:33:00;;;;;;;1.60;1.15;;;;;;;21.58;51.70;101294.63;4994503;28;20049;-87
2022/06/06 10:35:44;;;;;;;5.47;1.50;;;;;;;21.87;52.87;101293.22;4987906;28;20038;-86
2022/06/06 10:38:28;;;;;;;2.58;1.20;;;;;;;22.17;50.31;101296.03;4990174;28;20072;-86
2022/06/06 10:41:05;;;;;;;2.15;1.00;;;;;;;22.28;49.23;101287.47;4993271;28;20041;-86
2022/06/06 10:43:38;;;;;;;2.92;1.20;;;;;;;22.29;48.23;101300.81;4986479;28;20045;-86
2022/06/06 10:46:12;;;;;;;4.45;1.40;;;;;;;22.12;48.32;101300.84;4994405;28;20034;-86
2022/06/06 10:48:55;;;;;;;2.20;1.27;;;;;;;22.19;48.91;101304.69;4993311;28;20027;-83
2022/06/06 10:51:42;;;;;;;4.70;1.30;;;;;;;22.19;47.67;101299.22;4999139;28;20110;-84
2022/06/06 10:54:29;;;;;;;2.30;1.10;;;;;;;22.43;48.55;101305.28;4992286;28;20030;-84
2022/06/06 10:56:54;;;;;;;3.77;1.30;;;;;;;22.98;47.82;101306.28;4991739;28;20361;-84
2022/06/06 10:59:44;;;;;;;4.38;1.38;;;;;;;23.53;48.69;101300.94;4992246;28;20109;-82
2022/06/06 11:02:25;;;;;;;3.30;1.50;;;;;;;23.97;47.65;101304.06;4982726;28;20038;-82
2022/06/06 11:05:05;;;;;;;5.25;1.20;;;;;;;23.84;47.45;101291.47;4993516;28;20077;-84
2022/06/06 11:08:01;;;;;;;3.80;1.02;;;;;;;23.54;47.71;101292.38;4992341;28;20042;-84
2022/06/06 11:10:52;;;;;;;3.95;1.25;;;;;;;23.54;48.39;101288.88;4983987;28;20065;-82
2022/06/06 11:13:40;;;;;;;3.65;1.20;;;;;;;23.43;46.62;101272.06;4983905;28;20030;-83
2022/06/06 11:16:42;;;;;;;3.15;1.00;;;;;;;23.50;47.85;101287.94;4990312;28;20390;-84
2022/06/06 11:19:45;;;;;;;2.97;1.25;;;;;;;22.81;48.16;101277.94;5002253;28;20474;-84
2022/06/06 11:22:41;;;;;;;3.50;1.00;;;;;;;22.67;47.85;101266.44;4991052;28;20133;-84
2022/06/06 11:25:21;;;;;;;2.75;1.20;;;;;;;22.99;47.46;101267.69;4991964;28;20041;-84
2022/06/06 11:28:04;;;;;;;4.57;0.90;;;;;;;23.20;47.77;101261.44;4991174;28;20030;-84
2022/06/06 11:30:46;;;;;;;3.30;1.20;;;;;;;23.16;45.58;101267.91;4989594;28;20451;-91
2022/06/06 11:33:34;;;;;;;3.97;0.95;;;;;;;22.92;46.48;101263.91;4992505;28;20132;-90
2022/06/06 11:36:33;;;;;;;2.65;1.08;;;;;;;22.62;46.46;101261.97;4992053;28;20042;-93
2022/06/06 11:39:26;;;;;;;4.78;1.20;;;;;;;22.51;45.67;101260.75;4990510;28;20030;-91
2022/06/06 11:42:17;;;;;;;6.72;1.05;;;;;;;22.76;45.94;101261.75;4990776;28;20557;-90
2022/06/06 11:45:19;;;;;;;2.53;1.00;;;;;;;23.31;43.56;101270.06;4994350;28;20134;-91
2022/06/06 11:47:52;;;;;;;6.65;1.25;;;;;;;23.88;43.58;101279.50;4994553;28;20052;-89
2022/06/06 11:50:53;;;;;;;1.20;1.10;;;;;;;23.90;43.81;101270.97;4993371;28;20027;-91
2022/06/06 11:53:47;;;;;;;3.78;1.10;;;;;;;23.70;42.39;101272.59;4940550;28;20059;-91
2022/06/06 11:56:32;;;;;;;4.80;1.00;;;;;;;23.21;44.41;101270.47;4990106;28;20176;-91
2022/06/06 11:59:21;;;;;;;2.80;1.10;;;;;;;22.89;45.37;101273.56;4993127;28;20313;-91
2022/06/06 12:02:24;;;;;;;2.05;1.10;;;;;;;22.78;46.39;101267.69;4992079;28;20550;-91
2022/06/06 12:05:31;;;;;;;3.10;0.90;;;;;;;22.64;46.47;101261.66;4992409;28;20044;-90
2022/06/06 12:08:24;;;;;;;2.97;0.90;;;;;;;22.46;46.77;101269.13;4929998;29;20188;-92
2022/06/06 12:11:14;;;;;;;4.40;1.23;;;;;;;22.49;47.17;101261.06;4931019;29;20042;-91
2022/06/06 12:13:54;;;;;;;4.30;0.93;;;;;;;22.53;47.02;101272.94;4980765;28;20117;-91
2022/06/06 12:16:28;;;;;;;1.20;1.10;;;;;;;21.79;44.85;101266.75;4990472;28;20130;-92
2022/06/06 12:18:53;;;;;;;4.90;0.88;;;;;;;21.07;47.13;101268.97;4992128;28;20032;-92
2022/06/06 12:21:54;;;;;;;2.37;1.10;;;;;;;20.88;48.02;101270.06;4992470;28;20569;-90
2022/06/06 12:24:31;;;;;;;4.45;1.00;;;;;;;20.90;48.09;101269.75;4974559;28;20034;-91
2022/06/06 12:27:26;;;;;;;2.63;0.90;;;;;;;21.08;48.50;101262.41;4991459;28;20081;-91
2022/06/06 12:30:01;;;;;;;1.63;1.00;;;;;;;;;;4993655;28;20397;-92
2022/06/06 12:32:49;;;;;;;2.55;1.00;;;;;;;21.43;48.67;101263.22;4990934;28;20044;-94
2022/06/06 12:35:23;;;;;;;1.90;0.80;;;;;;;21.59;46.55;101247.16;4991675;28;20025;-92